Time,TemperatureF,DewpointF,PressureIn,WindDirection,WindDirectionDegrees,WindSpeedMPH,WindSpeedGustMPH,Humidity,HourlyPrecipIn,Conditions,Clouds,dailyrainin,SoftwareType,DateUTC
2013-11-17 00:01:00,48.0,47.5,30.14,SE,127,8.0,12.0,98,0.00,,,0.00,Wunderground v.1.15,2013-11-17 05:01:00,
2013-11-17 00:02:00,48.0,47.5,30.14,ESE,113,5.0,12.0,98,0.00,,,0.00,Wunderground v.1.15,2013-11-17 05:02:00,
2013-11-17 00:03:00,48.0,47.5,30.14,East,99,9.0,12.0,98,0.00,,,0.00,Wunderground v.1.15,2013-11-17 05:03:00,
2013-11-17 00:04:00,48.0,47.5,30.14,SE,131,9.0,12.0,98,0.00,,,0.00,Wunderground v.1.15,2013-11-17 05:04:00,
2013-11-17 00:06:00,48.1,47.6,30.14,SE,129,9.0,12.0,98,0.00,,,0.00,Wunderground v.1.15,2013-11-17 05:06:00,
2013-11-17 00:11:00,48.1,47.6,30.15,ESE,116,10.0,10.0,98,0.00,,,0.00,Wunderground v.1.15,2013-11-17 05:11:00,
2013-11-17 00:14:00,48.1,47.6,30.15,ESE,113,9.0,10.0,98,0.00,,,0.00,Wunderground v.1.15,2013-11-17 05:14:00,
2013-11-17 00:19:00,48.1,47.6,30.14,ESE,113,6.0,10.0,98,0.00,,,0.00,Wunderground v.1.15,2013-11-17 05:19:00,
2013-11-17 00:25:00,48.1,47.6,30.14,ESE,117,9.0,11.0,98,0.00,,,0.00,Wunderground v.1.15,2013-11-17 05:25:00,
2013-11-17 00:31:00,48.2,47.7,30.13,ESE,115,10.0,10.0,98,0.00,,,0.00,Wunderground v.1.15,2013-11-17 05:31:00,
2013-11-17 00:36:00,48.2,47.7,30.13,ESE,103,10.0,11.0,98,0.00,,,0.00,Wunderground v.1.15,2013-11-17 05:36:00,
2013-11-17 00:42:00,48.2,47.7,30.13,SE,127,9.0,9.0,98,0.00,,,0.00,Wunderground v.1.15,2013-11-17 05:42:00,
2013-11-17 00:47:00,48.2,47.7,30.13,East,97,7.0,10.0,98,0.00,,,0.00,Wunderground v.1.15,2013-11-17 05:47:00,
2013-11-17 00:53:00,48.2,47.7,30.13,SE,136,6.0,9.0,98,0.00,,,0.00,Wunderground v.1.15,2013-11-17 05:53:00,
2013-11-17 00:58:00,48.3,47.8,30.12,SE,129,9.0,9.0,98,0.00,,,0.00,Wunderground v.1.15,2013-11-17 05:58:00,
2013-11-17 01:04:00,48.3,47.8,30.11,East,99,8.0,10.0,98,0.00,,,0.00,Wunderground v.1.15,2013-11-17 06:04:00,
2013-11-17 01:10:00,48.5,48.0,30.11,ESE,122,7.0,8.0,98,0.00,,,0.00,Wunderground v.1.15,2013-11-17 06:10:00,
2013-11-17 01:16:00,48.5,48.0,30.12,ESE,110,10.0,10.0,98,0.00,,,0.00,Wunderground v.1.15,2013-11-17 06:16:00,
2013-11-17 01:21:00,48.5,48.0,30.11,ESE,122,10.0,10.0,98,0.00,,,0.00,Wunderground v.1.15,2013-11-17 06:21:00,
2013-11-17 01:27:00,48.5,48.0,30.11,SE,134,13.0,14.0,98,0.00,,,0.00,Wunderground v.1.15,2013-11-17 06:27:00,
2013-11-17 01:32:00,48.6,48.1,30.11,SE,136,5.0,8.0,98,0.00,,,0.00,Wunderground v.1.15,2013-11-17 06:32:00,
2013-11-17 01:38:00,48.7,48.2,30.11,ESE,118,10.0,11.0,98,0.00,,,0.00,Wunderground v.1.15,2013-11-17 06:38:00,
2013-11-17 01:43:00,48.7,47.9,30.11,SE,129,8.0,10.0,97,0.00,,,0.00,Wunderground v.1.15,2013-11-17 06:43:00,
2013-11-17 01:49:00,48.7,47.9,30.10,ENE,71,7.0,10.0,97,0.00,,,0.00,Wunderground v.1.15,2013-11-17 06:49:00,
2013-11-17 01:54:00,48.6,47.8,30.10,ESE,118,8.0,9.0,97,0.00,,,0.00,Wunderground v.1.15,2013-11-17 06:54:00,
2013-11-17 02:00:00,48.6,47.8,30.10,SE,128,4.0,6.0,97,0.00,,,0.00,Wunderground v.1.15,2013-11-17 07:00:00,
2013-11-17 02:05:00,48.5,47.7,30.10,East,86,7.0,11.0,97,0.00,,,0.00,Wunderground v.1.15,2013-11-17 07:05:00,
2013-11-17 02:10:00,48.6,47.8,30.10,ESE,120,6.0,6.0,97,0.00,,,0.00,Wunderground v.1.15,2013-11-17 07:10:00,
2013-11-17 02:15:00,48.7,47.9,30.10,ESE,113,2.0,11.0,97,0.00,,,0.00,Wunderground v.1.15,2013-11-17 07:15:00,
2013-11-17 02:20:00,48.7,47.9,30.10,East,101,6.0,8.0,97,0.00,,,0.00,Wunderground v.1.15,2013-11-17 07:20:00,
2013-11-17 02:25:00,48.7,47.9,30.10,East,90,3.0,8.0,97,0.00,,,0.00,Wunderground v.1.15,2013-11-17 07:25:00,
2013-11-17 02:30:00,48.7,47.9,30.10,East,89,3.0,7.0,97,0.00,,,0.00,Wunderground v.1.15,2013-11-17 07:30:00,
2013-11-17 02:35:00,48.7,47.9,30.09,SE,130,5.0,9.0,97,0.00,,,0.00,Wunderground v.1.15,2013-11-17 07:35:00,
2013-11-17 02:40:00,48.8,48.0,30.09,ESE,122,7.0,8.0,97,0.00,,,0.00,Wunderground v.1.15,2013-11-17 07:40:00,
2013-11-17 02:45:00,49.1,48.6,30.09,ESE,113,6.0,10.0,98,0.00,,,0.00,Wunderground v.1.15,2013-11-17 07:45:00,
2013-11-17 02:50:00,49.3,48.5,30.08,SE,124,12.0,12.0,97,0.00,,,0.00,Wunderground v.1.15,2013-11-17 07:50:00,
2013-11-17 02:55:00,49.6,48.8,30.08,SE,124,8.0,12.0,97,0.00,,,0.00,Wunderground v.1.15,2013-11-17 07:55:00,
2013-11-17 03:00:00,49.7,48.6,30.08,East,96,4.0,7.0,96,0.00,,,0.00,Wunderground v.1.15,2013-11-17 08:00:00,
2013-11-17 03:05:00,49.7,48.6,30.08,ESE,105,6.0,12.0,96,0.00,,,0.00,Wunderground v.1.15,2013-11-17 08:05:00,
2013-11-17 03:10:00,49.6,48.5,30.07,SE,132,9.0,10.0,96,0.00,,,0.00,Wunderground v.1.15,2013-11-17 08:10:00,
2013-11-17 03:15:00,49.5,48.4,30.07,SE,129,6.0,11.0,96,0.00,,,0.00,Wunderground v.1.15,2013-11-17 08:15:00,
2013-11-17 03:20:00,49.5,48.4,30.06,SE,128,3.0,7.0,96,0.00,,,0.00,Wunderground v.1.15,2013-11-17 08:20:00,
2013-11-17 03:25:00,49.7,48.6,30.06,East,101,4.0,11.0,96,0.00,,,0.00,Wunderground v.1.15,2013-11-17 08:25:00,
2013-11-17 03:30:00,49.8,48.7,30.06,ESE,110,3.0,7.0,96,0.00,,,0.00,Wunderground v.1.15,2013-11-17 08:30:00,
2013-11-17 03:35:00,49.6,48.2,30.06,ESE,110,6.0,9.0,95,0.00,,,0.00,Wunderground v.1.15,2013-11-17 08:35:00,
2013-11-17 03:40:00,49.5,48.4,30.06,SE,125,10.0,10.0,96,0.00,,,0.00,Wunderground v.1.15,2013-11-17 08:40:00,
2013-11-17 03:45:00,49.4,48.3,30.06,SE,131,8.0,11.0,96,0.00,,,0.00,Wunderground v.1.15,2013-11-17 08:45:00,
2013-11-17 03:50:00,49.3,48.2,30.06,SE,131,4.0,8.0,96,0.00,,,0.00,Wunderground v.1.15,2013-11-17 08:50:00,
2013-11-17 03:55:00,49.3,48.2,30.06,ESE,106,7.0,10.0,96,0.00,,,0.00,Wunderground v.1.15,2013-11-17 08:55:00,
2013-11-17 04:00:00,49.2,48.1,30.05,SE,124,5.0,6.0,96,0.00,,,0.00,Wunderground v.1.15,2013-11-17 09:00:00,
2013-11-17 04:05:00,49.2,48.1,30.06,SE,131,6.0,8.0,96,0.00,,,0.00,Wunderground v.1.15,2013-11-17 09:05:00,
2013-11-17 04:10:00,49.2,48.4,30.05,East,100,5.0,7.0,97,0.00,,,0.00,Wunderground v.1.15,2013-11-17 09:10:00,
2013-11-17 04:15:00,49.3,48.2,30.06,ESE,113,2.0,7.0,96,0.00,,,0.00,Wunderground v.1.15,2013-11-17 09:15:00,
2013-11-17 04:20:00,49.3,48.2,30.06,East,90,5.0,7.0,96,0.00,,,0.00,Wunderground v.1.15,2013-11-17 09:20:00,
2013-11-17 07:13:00,49.7,49.2,30.07,East,98,3.0,5.0,98,0.00,,,0.00,Wunderground v.1.15,2013-11-17 12:13:00,
2013-11-17 07:18:00,49.7,49.2,30.07,ESE,116,3.0,6.0,98,0.00,,,0.00,Wunderground v.1.15,2013-11-17 12:18:00,
2013-11-17 07:23:00,49.7,49.2,30.07,SE,132,3.0,4.0,98,0.00,,,0.00,Wunderground v.1.15,2013-11-17 12:23:00,
2013-11-17 07:28:00,49.7,49.2,30.07,SE,132,3.0,6.0,98,0.00,,,0.00,Wunderground v.1.15,2013-11-17 12:28:00,
2013-11-17 07:33:00,49.8,49.3,30.07,ESE,120,4.0,7.0,98,0.00,,,0.00,Wunderground v.1.15,2013-11-17 12:33:00,
2013-11-17 07:39:00,49.9,49.4,30.07,ESE,113,3.0,7.0,98,0.00,,,0.00,Wunderground v.1.15,2013-11-17 12:39:00,
2013-11-17 07:44:00,50.0,49.5,30.07,ESE,115,5.0,8.0,98,0.00,,,0.00,Wunderground v.1.15,2013-11-17 12:44:00,
2013-11-17 07:49:00,50.1,49.6,30.07,SE,135,6.0,8.0,98,0.00,,,0.00,Wunderground v.1.15,2013-11-17 12:49:00,
2013-11-17 07:54:00,50.3,49.8,30.07,ESE,122,9.0,11.0,98,0.00,,,0.00,Wunderground v.1.15,2013-11-17 12:54:00,
2013-11-17 07:59:00,50.4,49.9,30.07,ESE,104,5.0,11.0,98,0.00,,,0.00,Wunderground v.1.15,2013-11-17 12:59:00,
2013-11-17 08:04:00,50.4,49.9,30.07,ENE,74,6.0,10.0,98,0.00,,,0.00,Wunderground v.1.15,2013-11-17 13:04:00,
2013-11-17 08:09:00,50.5,50.0,30.07,SE,128,8.0,10.0,98,0.00,,,0.00,Wunderground v.1.15,2013-11-17 13:09:00,
2013-11-17 08:14:00,50.5,50.0,30.07,ESE,120,7.0,11.0,98,0.00,,,0.00,Wunderground v.1.15,2013-11-17 13:14:00,
2013-11-17 08:19:00,50.5,50.0,30.07,ESE,121,6.0,11.0,98,0.00,,,0.00,Wunderground v.1.15,2013-11-17 13:19:00,
2013-11-17 08:24:00,50.5,50.0,30.07,SE,131,6.0,11.0,98,0.00,,,0.00,Wunderground v.1.15,2013-11-17 13:24:00,
2013-11-17 08:29:00,50.6,50.1,30.07,SE,132,6.0,11.0,98,0.00,,,0.00,Wunderground v.1.15,2013-11-17 13:29:00,
2013-11-17 08:34:00,50.6,50.1,30.07,ESE,122,6.0,10.0,98,0.00,,,0.00,Wunderground v.1.15,2013-11-17 13:34:00,
2013-11-17 08:39:00,50.8,50.3,30.07,SE,139,6.0,10.0,98,0.00,,,0.00,Wunderground v.1.15,2013-11-17 13:39:00,
2013-11-17 08:44:00,51.0,50.5,30.07,ESE,110,6.0,8.0,98,0.00,,,0.00,Wunderground v.1.15,2013-11-17 13:44:00,
2013-11-17 08:49:00,51.0,50.5,30.07,SSE,148,7.0,11.0,98,0.00,,,0.00,Wunderground v.1.15,2013-11-17 13:49:00,
2013-11-17 08:54:00,51.3,50.8,30.07,ESE,108,4.0,10.0,98,0.00,,,0.00,Wunderground v.1.15,2013-11-17 13:54:00,
2013-11-17 08:59:00,51.4,50.9,30.06,SSE,148,4.0,10.0,98,0.00,,,0.00,Wunderground v.1.15,2013-11-17 13:59:00,
2013-11-17 09:04:00,51.4,50.9,30.06,ESE,122,7.0,10.0,98,0.00,,,0.00,Wunderground v.1.15,2013-11-17 14:04:00,
2013-11-17 09:09:00,51.7,51.2,30.06,ESE,103,6.0,10.0,98,0.00,,,0.00,Wunderground v.1.15,2013-11-17 14:09:00,
2013-11-17 09:14:00,52.1,51.6,30.05,ESE,120,11.0,12.0,98,0.00,,,0.00,Wunderground v.1.15,2013-11-17 14:14:00,
2013-11-17 09:19:00,52.4,51.6,30.06,ENE,67,4.0,16.0,97,0.00,,,0.00,Wunderground v.1.15,2013-11-17 14:19:00,
2013-11-17 09:24:00,52.4,51.6,30.06,ESE,120,10.0,15.0,97,0.00,,,0.00,Wunderground v.1.15,2013-11-17 14:24:00,
2013-11-17 09:29:00,52.5,51.7,30.05,East,101,6.0,15.0,97,0.00,,,0.00,Wunderground v.1.15,2013-11-17 14:29:00,
2013-11-17 09:34:00,52.6,51.8,30.06,East,101,10.0,12.0,97,0.00,,,0.00,Wunderground v.1.15,2013-11-17 14:34:00,
2013-11-17 09:39:00,52.9,52.1,30.05,SE,129,7.0,13.0,97,0.00,,,0.00,Wunderground v.1.15,2013-11-17 14:39:00,
2013-11-17 09:44:00,53.2,52.1,30.05,SE,129,6.0,12.0,96,0.00,,,0.00,Wunderground v.1.15,2013-11-17 14:44:00,
2013-11-17 09:49:00,53.3,52.2,30.05,SE,132,5.0,12.0,96,0.00,,,0.00,Wunderground v.1.15,2013-11-17 14:49:00,
2013-11-17 09:54:00,53.4,52.0,30.05,East,88,7.0,16.0,95,0.00,,,0.00,Wunderground v.1.15,2013-11-17 14:54:00,
2013-11-17 09:59:00,53.6,52.5,30.05,ESE,121,5.0,16.0,96,0.00,,,0.00,Wunderground v.1.15,2013-11-17 14:59:00,
2013-11-17 10:04:00,53.8,52.4,30.05,SE,143,6.0,13.0,95,0.00,,,0.00,Wunderground v.1.15,2013-11-17 15:04:00,
2013-11-17 10:09:00,53.8,52.4,30.05,ESE,110,8.0,13.0,95,0.00,,,0.00,Wunderground v.1.15,2013-11-17 15:09:00,
2013-11-17 10:14:00,54.1,52.4,30.05,SE,140,7.0,13.0,94,0.00,,,0.00,Wunderground v.1.15,2013-11-17 15:14:00,
2013-11-17 10:19:00,54.8,53.1,30.05,ESE,107,10.0,13.0,94,0.00,,,0.00,Wunderground v.1.15,2013-11-17 15:19:00,
2013-11-17 10:24:00,55.5,53.5,30.05,East,84,6.0,13.0,93,0.00,,,0.00,Wunderground v.1.15,2013-11-17 15:24:00,
2013-11-17 10:29:00,56.2,53.6,30.05,SE,130,6.0,13.0,91,0.00,,,0.00,Wunderground v.1.15,2013-11-17 15:29:00,
2013-11-17 10:34:00,56.6,53.7,30.05,ESE,108,3.0,8.0,90,0.00,,,0.00,Wunderground v.1.15,2013-11-17 15:34:00,
2013-11-17 10:39:00,56.8,53.9,30.04,East,84,4.0,9.0,90,0.00,,,0.00,Wunderground v.1.15,2013-11-17 15:39:00,
2013-11-17 10:44:00,57.1,53.9,30.04,East,98,1.0,10.0,89,0.00,,,0.00,Wunderground v.1.15,2013-11-17 15:44:00,
2013-11-17 10:49:00,57.0,53.5,30.04,SE,133,3.0,10.0,88,0.00,,,0.00,Wunderground v.1.15,2013-11-17 15:49:00,
2013-11-17 10:54:00,56.7,53.2,30.04,SE,130,7.0,16.0,88,0.00,,,0.00,Wunderground v.1.15,2013-11-17 15:54:00,
2013-11-17 10:59:00,56.7,53.2,30.04,ESE,121,5.0,16.0,88,0.00,,,0.00,Wunderground v.1.15,2013-11-17 15:59:00,
2013-11-17 11:04:00,56.9,53.4,30.03,ESE,105,5.0,7.0,88,0.00,,,0.00,Wunderground v.1.15,2013-11-17 16:04:00,
2013-11-17 11:09:00,56.9,53.4,30.03,SE,131,10.0,10.0,88,0.00,,,0.00,Wunderground v.1.15,2013-11-17 16:09:00,
2013-11-17 11:14:00,57.0,53.5,30.03,East,84,5.0,11.0,88,0.00,,,0.00,Wunderground v.1.15,2013-11-17 16:14:00,
2013-11-17 11:19:00,57.3,53.5,30.03,SE,130,13.0,13.0,87,0.00,,,0.00,Wunderground v.1.15,2013-11-17 16:19:00,
2013-11-17 11:24:00,57.8,54.0,30.03,ESE,103,5.0,10.0,87,0.00,,,0.00,Wunderground v.1.15,2013-11-17 16:24:00,
2013-11-17 11:29:00,58.1,53.9,30.03,SE,124,6.0,10.0,86,0.00,,,0.00,Wunderground v.1.15,2013-11-17 16:29:00,
2013-11-17 11:34:00,58.4,53.9,30.03,South,169,4.0,12.0,85,0.00,,,0.00,Wunderground v.1.15,2013-11-17 16:34:00,
2013-11-17 11:39:00,59.1,54.6,30.02,ESE,107,8.0,14.0,85,0.00,,,0.00,Wunderground v.1.15,2013-11-17 16:39:00,
2013-11-17 11:44:00,59.6,54.4,30.01,SSE,148,3.0,12.0,83,0.00,,,0.00,Wunderground v.1.15,2013-11-17 16:44:00,
2013-11-17 11:49:00,59.5,54.3,30.01,SE,129,3.0,12.0,83,0.00,,,0.00,Wunderground v.1.15,2013-11-17 16:49:00,
2013-11-17 11:54:00,59.6,54.4,30.00,ESE,122,9.0,11.0,83,0.00,,,0.00,Wunderground v.1.15,2013-11-17 16:54:00,
2013-11-17 11:59:00,59.7,53.9,30.00,ESE,121,4.0,14.0,81,0.00,,,0.00,Wunderground v.1.15,2013-11-17 16:59:00,
2013-11-17 12:04:00,59.9,54.4,29.99,SE,128,9.0,11.0,82,0.00,,,0.00,Wunderground v.1.15,2013-11-17 17:04:00,
2013-11-17 12:09:00,60.1,53.9,29.99,SE,141,9.0,17.0,80,0.00,,,0.00,Wunderground v.1.15,2013-11-17 17:09:00,
2013-11-17 12:14:00,60.6,54.0,29.99,ESE,120,6.0,14.0,79,0.00,,,0.00,Wunderground v.1.15,2013-11-17 17:14:00,
2013-11-17 12:19:00,61.1,54.2,29.98,SE,142,4.0,16.0,78,0.00,,,0.00,Wunderground v.1.15,2013-11-17 17:19:00,
2013-11-17 12:24:00,61.4,53.8,29.98,SSE,148,9.0,14.0,76,0.00,,,0.00,Wunderground v.1.15,2013-11-17 17:24:00,
2013-11-17 12:29:00,61.5,54.2,29.98,SE,131,3.0,14.0,77,0.00,,,0.00,Wunderground v.1.15,2013-11-17 17:29:00,
2013-11-17 12:34:00,61.9,54.2,29.98,SE,135,5.0,8.0,76,0.00,,,0.00,Wunderground v.1.15,2013-11-17 17:34:00,
2013-11-17 12:39:00,61.8,53.8,29.98,SE,126,3.0,12.0,75,0.00,,,0.00,Wunderground v.1.15,2013-11-17 17:39:00,
2013-11-17 12:44:00,61.7,53.3,29.98,ESE,120,5.0,11.0,74,0.00,,,0.00,Wunderground v.1.15,2013-11-17 17:44:00,
2013-11-17 12:49:00,61.7,53.3,29.97,ESE,117,5.0,13.0,74,0.00,,,0.00,Wunderground v.1.15,2013-11-17 17:49:00,
2013-11-17 12:54:00,61.4,53.0,29.97,SE,132,3.0,11.0,74,0.00,,,0.00,Wunderground v.1.15,2013-11-17 17:54:00,
2013-11-17 12:59:00,61.5,53.9,29.97,SE,132,5.0,11.0,76,0.00,,,0.00,Wunderground v.1.15,2013-11-17 17:59:00,
2013-11-17 13:04:00,61.7,54.1,29.96,ENE,72,5.0,11.0,76,0.00,,,0.00,Wunderground v.1.15,2013-11-17 18:04:00,
2013-11-17 13:09:00,61.7,53.7,29.95,ESE,113,7.0,12.0,75,0.00,,,0.00,Wunderground v.1.15,2013-11-17 18:09:00,
2013-11-17 13:14:00,61.8,53.8,29.95,SSE,150,6.0,13.0,75,0.00,,,0.00,Wunderground v.1.15,2013-11-17 18:14:00,
2013-11-17 13:19:00,61.8,53.8,29.93,ESE,116,8.0,15.0,75,0.00,,,0.00,Wunderground v.1.15,2013-11-17 18:19:00,
2013-11-17 13:24:00,61.7,53.7,29.93,East,89,11.0,13.0,75,0.00,,,0.00,Wunderground v.1.15,2013-11-17 18:24:00,
2013-11-17 13:29:00,61.7,53.7,29.92,SE,127,7.0,16.0,75,0.00,,,0.00,Wunderground v.1.15,2013-11-17 18:29:00,
2013-11-17 13:34:00,62.1,54.1,29.92,ESE,118,11.0,14.0,75,0.00,,,0.00,Wunderground v.1.15,2013-11-17 18:34:00,
2013-11-17 13:39:00,62.6,54.2,29.92,ESE,113,9.0,14.0,74,0.00,,,0.00,Wunderground v.1.15,2013-11-17 18:39:00,
2013-11-17 13:44:00,62.4,53.6,29.91,ESE,113,5.0,15.0,73,0.00,,,0.00,Wunderground v.1.15,2013-11-17 18:44:00,
2013-11-17 13:49:00,62.4,54.0,29.91,SE,136,8.0,15.0,74,0.00,,,0.00,Wunderground v.1.15,2013-11-17 18:49:00,
2013-11-17 13:54:00,62.2,53.8,29.91,ESE,108,8.0,16.0,74,0.00,,,0.00,Wunderground v.1.15,2013-11-17 18:54:00,
2013-11-17 13:59:00,62.3,54.3,29.90,ESE,120,11.0,16.0,75,0.00,,,0.00,Wunderground v.1.15,2013-11-17 18:59:00,
2013-11-17 14:04:00,62.4,54.0,29.90,East,84,10.0,15.0,74,0.00,,,0.00,Wunderground v.1.15,2013-11-17 19:04:00,
2013-11-17 14:09:00,62.5,54.5,29.90,SE,129,10.0,15.0,75,0.00,,,0.00,Wunderground v.1.15,2013-11-17 19:09:00,
2013-11-17 14:14:00,63.1,54.3,29.90,ESE,119,6.0,14.0,73,0.00,,,0.00,Wunderground v.1.15,2013-11-17 19:14:00,
2013-11-17 14:19:00,63.5,54.7,29.91,ESE,115,6.0,16.0,73,0.00,,,0.00,Wunderground v.1.15,2013-11-17 19:19:00,
2013-11-17 14:24:00,63.5,54.3,29.90,ESE,123,9.0,17.0,72,0.00,,,0.00,Wunderground v.1.15,2013-11-17 19:24:00,
2013-11-17 14:29:00,63.6,54.4,29.90,SE,134,13.0,17.0,72,0.00,,,0.00,Wunderground v.1.15,2013-11-17 19:29:00,
2013-11-17 14:34:00,63.2,54.0,29.89,SE,145,10.0,17.0,72,0.00,,,0.00,Wunderground v.1.15,2013-11-17 19:34:00,
2013-11-17 14:39:00,63.1,53.9,29.89,SSE,155,6.0,19.0,72,0.00,,,0.00,Wunderground v.1.15,2013-11-17 19:39:00,
2013-11-17 14:44:00,62.8,53.6,29.89,SE,125,6.0,17.0,72,0.00,,,0.00,Wunderground v.1.15,2013-11-17 19:44:00,
2013-11-17 14:49:00,62.3,53.2,29.88,ESE,117,13.0,24.0,72,0.00,,,0.00,Wunderground v.1.15,2013-11-17 19:49:00,
2013-11-17 14:54:00,61.9,53.1,29.88,East,98,8.0,17.0,73,0.00,,,0.00,Wunderground v.1.15,2013-11-17 19:54:00,
2013-11-17 14:59:00,61.7,53.3,29.89,ESE,120,7.0,17.0,74,0.00,,,0.00,Wunderground v.1.15,2013-11-17 19:59:00,
2013-11-17 15:04:00,61.5,53.1,29.89,SE,129,6.0,15.0,74,0.00,,,0.00,Wunderground v.1.15,2013-11-17 20:04:00,
2013-11-17 15:09:00,61.3,53.3,29.89,East,80,10.0,15.0,75,0.00,,,0.00,Wunderground v.1.15,2013-11-17 20:09:00,
2013-11-17 15:14:00,61.1,53.1,29.89,SE,134,8.0,16.0,75,0.00,,,0.00,Wunderground v.1.15,2013-11-17 20:14:00,
2013-11-17 15:19:00,60.9,52.6,29.88,ESE,115,15.0,16.0,74,0.00,,,0.00,Wunderground v.1.15,2013-11-17 20:19:00,
2013-11-17 15:24:00,60.7,52.4,29.88,SSE,167,6.0,16.0,74,0.00,,,0.00,Wunderground v.1.15,2013-11-17 20:24:00,
2013-11-17 15:29:00,60.6,52.6,29.88,East,79,6.0,16.0,75,0.00,,,0.00,Wunderground v.1.15,2013-11-17 20:29:00,
2013-11-17 15:34:00,60.3,52.3,29.88,ESE,116,11.0,12.0,75,0.00,,,0.00,Wunderground v.1.15,2013-11-17 20:34:00,
2013-11-17 15:39:00,60.1,52.5,29.89,ESE,121,7.0,14.0,76,0.00,,,0.00,Wunderground v.1.15,2013-11-17 20:39:00,
2013-11-17 15:44:00,60.0,52.4,29.89,East,100,12.0,12.0,76,0.00,,,0.00,Wunderground v.1.15,2013-11-17 20:44:00,
2013-11-17 15:49:00,59.9,52.3,29.89,SE,129,12.0,15.0,76,0.00,,,0.00,Wunderground v.1.15,2013-11-17 20:49:00,
2013-11-17 15:54:00,59.6,52.7,29.90,East,82,5.0,9.0,78,0.00,,,0.00,Wunderground v.1.15,2013-11-17 20:54:00,
2013-11-17 15:59:00,59.1,52.9,29.90,SSE,158,3.0,13.0,80,0.00,,,0.00,Wunderground v.1.15,2013-11-17 20:59:00,
2013-11-17 16:04:00,58.5,53.0,29.90,ESE,110,5.0,10.0,82,0.00,,,0.01,Wunderground v.1.15,2013-11-17 21:04:00,
2013-11-17 16:09:00,57.9,53.1,29.89,ESE,110,6.0,10.0,84,0.11,,,0.02,Wunderground v.1.15,2013-11-17 21:09:00,
2013-11-17 16:14:00,57.3,53.1,29.90,SE,124,9.0,9.0,86,0.10,,,0.03,Wunderground v.1.15,2013-11-17 21:14:00,
2013-11-17 16:19:00,56.9,53.4,29.89,East,94,4.0,9.0,88,0.09,,,0.04,Wunderground v.1.15,2013-11-17 21:19:00,
2013-11-17 16:24:00,56.5,53.3,29.88,SE,131,6.0,8.0,89,0.20,,,0.06,Wunderground v.1.15,2013-11-17 21:24:00,
2013-11-17 16:29:00,56.1,53.5,29.87,East,83,11.0,11.0,91,0.12,,,0.07,Wunderground v.1.15,2013-11-17 21:29:00,
2013-11-17 16:34:00,55.8,53.5,29.86,SE,128,10.0,10.0,92,0.13,,,0.08,Wunderground v.1.15,2013-11-17 21:34:00,
2013-11-17 16:39:00,55.6,53.6,29.86,SE,126,3.0,13.0,93,0.12,,,0.09,Wunderground v.1.15,2013-11-17 21:39:00,
2013-11-17 16:44:00,55.4,53.4,29.84,East,101,7.0,14.0,93,0.10,,,0.09,Wunderground v.1.15,2013-11-17 21:44:00,
2013-11-17 16:49:00,55.3,53.6,29.84,ESE,118,7.0,14.0,94,0.05,,,0.09,Wunderground v.1.15,2013-11-17 21:49:00,
2013-11-17 16:54:00,55.2,53.5,29.84,ENE,71,13.0,18.0,94,0.04,,,0.09,Wunderground v.1.15,2013-11-17 21:54:00,
2013-11-17 16:59:00,55.2,53.8,29.84,SE,134,11.0,18.0,95,0.00,,,0.09,Wunderground v.1.15,2013-11-17 21:59:00,
2013-11-17 17:04:00,55.2,53.8,29.84,ESE,103,9.0,15.0,95,0.00,,,0.09,Wunderground v.1.15,2013-11-17 22:04:00,
2013-11-17 17:09:00,55.2,53.8,29.84,SE,136,9.0,15.0,95,0.00,,,0.09,Wunderground v.1.15,2013-11-17 22:09:00,
2013-11-17 17:14:00,55.2,53.8,29.84,SE,131,7.0,13.0,95,0.00,,,0.09,Wunderground v.1.15,2013-11-17 22:14:00,
2013-11-17 17:19:00,55.2,53.8,29.84,SE,126,6.0,15.0,95,0.00,,,0.09,Wunderground v.1.15,2013-11-17 22:19:00,
2013-11-17 17:24:00,55.1,54.0,29.84,ESE,102,4.0,11.0,96,0.00,,,0.09,Wunderground v.1.15,2013-11-17 22:24:00,
2013-11-17 17:29:00,55.1,54.0,29.83,ESE,121,5.0,11.0,96,0.00,,,0.09,Wunderground v.1.15,2013-11-17 22:29:00,
2013-11-17 17:34:00,54.9,53.8,29.83,ESE,117,6.0,10.0,96,0.00,,,0.09,Wunderground v.1.15,2013-11-17 22:34:00,
2013-11-17 17:39:00,54.8,53.7,29.83,SE,135,5.0,12.0,96,0.00,,,0.09,Wunderground v.1.15,2013-11-17 22:39:00,
2013-11-17 17:44:00,54.8,54.0,29.83,SE,135,8.0,12.0,97,0.00,,,0.09,Wunderground v.1.15,2013-11-17 22:44:00,
2013-11-17 17:49:00,54.7,53.9,29.84,East,87,7.0,13.0,97,0.00,,,0.09,Wunderground v.1.15,2013-11-17 22:49:00,
2013-11-17 17:54:00,54.7,53.9,29.84,SE,124,3.0,9.0,97,0.00,,,0.10,Wunderground v.1.15,2013-11-17 22:54:00,
2013-11-17 17:59:00,54.8,54.0,29.84,SE,140,8.0,9.0,97,0.00,,,0.10,Wunderground v.1.15,2013-11-17 22:59:00,
2013-11-17 18:04:00,54.7,53.9,29.83,ENE,78,5.0,10.0,97,0.00,,,0.10,Wunderground v.1.15,2013-11-17 23:04:00,
2013-11-17 18:09:00,54.7,53.9,29.83,ESE,120,9.0,10.0,97,0.00,,,0.10,Wunderground v.1.15,2013-11-17 23:09:00,
2013-11-17 18:14:00,54.7,53.9,29.83,East,94,4.0,9.0,97,0.00,,,0.10,Wunderground v.1.15,2013-11-17 23:14:00,
2013-11-17 18:19:00,54.6,54.0,29.82,SE,136,3.0,11.0,98,0.00,,,0.10,Wunderground v.1.15,2013-11-17 23:19:00,
2013-11-17 18:24:00,54.7,54.1,29.83,ESE,108,5.0,14.0,98,0.00,,,0.10,Wunderground v.1.15,2013-11-17 23:24:00,
2013-11-17 18:29:00,54.7,54.1,29.83,SE,124,9.0,14.0,98,0.00,,,0.10,Wunderground v.1.15,2013-11-17 23:29:00,
2013-11-17 18:34:00,54.9,54.3,29.82,ESE,102,6.0,11.0,98,0.00,,,0.10,Wunderground v.1.15,2013-11-17 23:34:00,
2013-11-17 18:39:00,55.0,54.4,29.83,SSW,203,1.0,13.0,98,0.00,,,0.10,Wunderground v.1.15,2013-11-17 23:39:00,
2013-11-17 18:44:00,55.2,54.6,29.83,SE,143,3.0,9.0,98,0.41,,,0.13,Wunderground v.1.15,2013-11-17 23:44:00,
2013-11-17 18:50:00,55.2,54.4,29.83,ESE,103,7.0,10.0,97,0.09,,,0.13,Wunderground v.1.15,2013-11-17 23:50:00,
2013-11-17 18:55:00,55.3,54.5,29.83,ESE,113,11.0,12.0,97,0.05,,,0.13,Wunderground v.1.15,2013-11-17 23:55:00,
2013-11-17 19:00:00,55.4,54.6,29.82,SSE,153,4.0,12.0,97,0.04,,,0.14,Wunderground v.1.15,2013-11-18 00:00:00,
2013-11-17 19:05:00,55.5,54.7,29.82,ESE,122,10.0,10.0,97,0.04,,,0.14,Wunderground v.1.15,2013-11-18 00:05:00,
2013-11-17 19:10:00,55.6,54.8,29.82,SE,132,8.0,12.0,97,0.04,,,0.14,Wunderground v.1.15,2013-11-18 00:10:00,
2013-11-17 19:15:00,55.6,54.8,29.81,SE,124,11.0,12.0,97,0.00,,,0.14,Wunderground v.1.15,2013-11-18 00:15:00,
2013-11-17 19:20:00,55.7,54.9,29.82,ESE,121,9.0,15.0,97,0.00,,,0.15,Wunderground v.1.15,2013-11-18 00:20:00,
2013-11-17 19:25:00,55.8,55.0,29.82,SSE,148,8.0,10.0,97,0.00,,,0.15,Wunderground v.1.15,2013-11-18 00:25:00,
2013-11-17 19:30:00,55.9,55.1,29.82,SE,141,11.0,15.0,97,0.06,,,0.16,Wunderground v.1.15,2013-11-18 00:30:00,
2013-11-17 19:35:00,55.9,55.1,29.80,SE,131,6.0,13.0,97,0.06,,,0.16,Wunderground v.1.15,2013-11-18 00:35:00,
2013-11-17 19:40:00,55.9,55.1,29.81,SE,124,12.0,14.0,97,0.06,,,0.16,Wunderground v.1.15,2013-11-18 00:40:00,
2013-11-17 19:45:00,55.9,55.1,29.80,SE,143,8.0,13.0,97,0.04,,,0.16,Wunderground v.1.15,2013-11-18 00:45:00,
2013-11-17 19:50:00,56.0,55.2,29.80,SE,129,9.0,15.0,97,0.00,,,0.16,Wunderground v.1.15,2013-11-18 00:50:00,
2013-11-17 19:55:00,56.0,55.2,29.80,SE,138,10.0,14.0,97,0.00,,,0.16,Wunderground v.1.15,2013-11-18 00:55:00,
2013-11-17 20:00:00,56.1,55.3,29.80,SE,131,5.0,14.0,97,0.00,,,0.16,Wunderground v.1.15,2013-11-18 01:00:00,
2013-11-17 20:05:00,56.1,55.3,29.79,ESE,104,8.0,13.0,97,0.00,,,0.16,Wunderground v.1.15,2013-11-18 01:05:00,
2013-11-17 20:10:00,56.1,55.3,29.79,ESE,110,6.0,13.0,97,0.00,,,0.16,Wunderground v.1.15,2013-11-18 01:10:00,
2013-11-17 20:15:00,56.1,55.3,29.79,East,94,9.0,11.0,97,0.00,,,0.16,Wunderground v.1.15,2013-11-18 01:15:00,
2013-11-17 20:20:00,56.2,55.4,29.79,SE,132,6.0,8.0,97,0.00,,,0.16,Wunderground v.1.15,2013-11-18 01:20:00,
2013-11-17 20:25:00,56.3,55.5,29.79,ESE,122,13.0,14.0,97,0.00,,,0.16,Wunderground v.1.15,2013-11-18 01:25:00,
2013-11-17 20:30:00,56.3,55.5,29.79,ESE,120,5.0,7.0,97,0.00,,,0.16,Wunderground v.1.15,2013-11-18 01:30:00,
2013-11-17 20:35:00,56.3,55.5,29.78,SSE,160,5.0,14.0,97,0.00,,,0.16,Wunderground v.1.15,2013-11-18 01:35:00,
2013-11-17 20:40:00,56.5,55.7,29.78,ESE,116,4.0,8.0,97,0.00,,,0.16,Wunderground v.1.15,2013-11-18 01:40:00,
2013-11-17 20:45:00,56.5,55.4,29.78,ESE,107,8.0,15.0,96,0.00,,,0.16,Wunderground v.1.15,2013-11-18 01:45:00,
2013-11-17 20:50:00,56.4,55.3,29.77,SE,130,11.0,11.0,96,0.00,,,0.16,Wunderground v.1.15,2013-11-18 01:50:00,
2013-11-17 20:55:00,56.4,55.3,29.78,SSE,156,7.0,15.0,96,0.00,,,0.16,Wunderground v.1.15,2013-11-18 01:55:00,
2013-11-17 21:00:00,56.5,55.4,29.78,ESE,104,10.0,10.0,96,0.00,,,0.16,Wunderground v.1.15,2013-11-18 02:00:00,
2013-11-17 21:05:00,56.5,55.4,29.78,East,94,11.0,13.0,96,0.00,,,0.16,Wunderground v.1.15,2013-11-18 02:05:00,
2013-11-17 21:10:00,56.6,55.5,29.79,ESE,116,10.0,10.0,96,0.00,,,0.16,Wunderground v.1.15,2013-11-18 02:10:00,
2013-11-17 21:15:00,56.6,55.5,29.78,SSE,158,5.0,11.0,96,0.00,,,0.16,Wunderground v.1.15,2013-11-18 02:15:00,
2013-11-17 21:20:00,56.6,55.5,29.78,SE,130,11.0,11.0,96,0.00,,,0.16,Wunderground v.1.15,2013-11-18 02:20:00,
2013-11-17 21:25:00,56.8,55.7,29.78,SE,136,5.0,12.0,96,0.00,,,0.16,Wunderground v.1.15,2013-11-18 02:25:00,
2013-11-17 21:30:00,56.8,55.4,29.77,South,170,3.0,7.0,95,0.00,,,0.16,Wunderground v.1.15,2013-11-18 02:30:00,
2013-11-17 21:35:00,56.9,55.5,29.78,SE,128,10.0,10.0,95,0.00,,,0.16,Wunderground v.1.15,2013-11-18 02:35:00,
2013-11-17 21:40:00,57.0,55.6,29.78,SE,139,3.0,5.0,95,0.00,,,0.16,Wunderground v.1.15,2013-11-18 02:40:00,
2013-11-17 21:45:00,57.1,55.7,29.78,SE,134,4.0,11.0,95,0.00,,,0.16,Wunderground v.1.15,2013-11-18 02:45:00,
2013-11-17 21:50:00,57.1,55.7,29.78,ESE,118,9.0,9.0,95,0.00,,,0.16,Wunderground v.1.15,2013-11-18 02:50:00,
2013-11-17 21:55:00,57.1,55.7,29.77,SE,136,7.0,9.0,95,0.00,,,0.16,Wunderground v.1.15,2013-11-18 02:55:00,
2013-11-17 22:00:00,57.2,55.8,29.77,SE,126,4.0,6.0,95,0.00,,,0.16,Wunderground v.1.15,2013-11-18 03:00:00,
2013-11-17 22:05:00,57.2,55.8,29.77,South,188,1.0,8.0,95,0.00,,,0.16,Wunderground v.1.15,2013-11-18 03:05:00,
2013-11-17 22:10:00,57.2,55.8,29.77,SE,136,4.0,5.0,95,0.00,,,0.16,Wunderground v.1.15,2013-11-18 03:10:00,
2013-11-17 22:15:00,57.2,55.8,29.77,SSE,155,2.0,5.0,95,0.00,,,0.16,Wunderground v.1.15,2013-11-18 03:15:00,
2013-11-17 22:20:00,57.2,55.8,29.77,SE,146,4.0,4.0,95,0.00,,,0.16,Wunderground v.1.15,2013-11-18 03:20:00,
2013-11-17 22:25:00,57.3,55.9,29.77,ESE,117,2.0,5.0,95,0.00,,,0.16,Wunderground v.1.15,2013-11-18 03:25:00,
2013-11-17 22:30:00,57.3,55.9,29.76,SE,124,2.0,4.0,95,0.00,,,0.16,Wunderground v.1.15,2013-11-18 03:30:00,
2013-11-17 22:35:00,57.5,56.1,29.76,SE,129,2.0,9.0,95,0.00,,,0.16,Wunderground v.1.15,2013-11-18 03:35:00,
2013-11-17 22:40:00,57.6,56.2,29.75,SW,218,6.0,8.0,95,0.00,,,0.16,Wunderground v.1.15,2013-11-18 03:40:00,
2013-11-17 22:45:00,58.1,56.7,29.75,SE,132,3.0,13.0,95,0.00,,,0.16,Wunderground v.1.15,2013-11-18 03:45:00,
2013-11-17 22:50:00,58.4,57.0,29.75,SSE,156,5.0,5.0,95,0.00,,,0.16,Wunderground v.1.15,2013-11-18 03:50:00,
2013-11-17 22:55:00,58.8,57.4,29.74,SE,125,5.0,11.0,95,0.00,,,0.16,Wunderground v.1.15,2013-11-18 03:55:00,
2013-11-17 23:00:00,59.1,57.4,29.74,South,181,7.0,7.0,94,0.00,,,0.16,Wunderground v.1.15,2013-11-18 04:00:00,
2013-11-17 23:05:00,59.5,57.8,29.73,WSW,243,2.0,8.0,94,0.00,,,0.16,Wunderground v.1.15,2013-11-18 04:05:00,
2013-11-17 23:10:00,59.6,57.9,29.72,SSE,155,7.0,7.0,94,0.00,,,0.16,Wunderground v.1.15,2013-11-18 04:10:00,
2013-11-17 23:15:00,59.9,58.2,29.73,SW,218,4.0,11.0,94,0.00,,,0.16,Wunderground v.1.15,2013-11-18 04:15:00,
2013-11-17 23:20:00,60.1,58.1,29.73,SSE,155,4.0,4.0,93,0.00,,,0.16,Wunderground v.1.15,2013-11-18 04:20:00,
2013-11-17 23:25:00,60.2,58.2,29.74,SE,146,8.0,19.0,93,0.34,,,0.18,Wunderground v.1.15,2013-11-18 04:25:00,
2013-11-17 23:30:00,59.7,57.1,29.75,WSW,248,9.0,18.0,91,0.14,,,0.19,Wunderground v.1.15,2013-11-18 04:30:00,
2013-11-17 23:35:00,59.0,56.1,29.76,West,277,11.0,20.0,90,0.17,,,0.20,Wunderground v.1.15,2013-11-18 04:35:00,
2013-11-17 23:40:00,58.4,55.5,29.76,SW,229,8.0,8.0,90,0.07,,,0.20,Wunderground v.1.15,2013-11-18 04:40:00,
2013-11-17 23:45:00,57.9,55.3,29.78,SW,233,6.0,12.0,91,0.07,,,0.21,Wunderground v.1.15,2013-11-18 04:45:00,
2013-11-17 23:50:00,57.4,55.1,29.78,West,272,4.0,14.0,92,0.06,,,0.22,Wunderground v.1.15,2013-11-18 04:50:00,
2013-11-17 23:55:00,56.9,54.6,29.78,SW,229,4.0,15.0,92,0.12,,,0.23,Wunderground v.1.15,2013-11-18 04:55:00,